Cantua Creek, California
Current Conditions -  °F | °C
As of 11:56 AM on Thursday 30 Oct 2014 (Local Time) from KNLC Reporting Station
Broken Clouds Broken Clouds  
Wind Chill: 77°   Ceiling: 16000
Heat Index: 78°   Visibility: 7mi
Dew Point: 46°   Wind: 8mph
Humidity: 33%   Direction: 160°SSE
Pressure: 29.94"   Gusts: NA
Location:  36.5°N, 120.32°W
Report Text: KNLC 301856Z 16007KT 7SM BKN160 BKN190 25/08 A2994 RMK AO2 SLP138 RH/33 T02500078 $
Loading
Personal Weather Stations






























Interactive Weather Map
Tropical Storm Tracking
New forecast layout! Learn more

10-Day Weather Forecast

Advertisements
Track Severe Weather on mobile